Terminal Aerodrome Forecast
Issued by NWS

Home | Current Version | Previous Version | Text Only | Print | Product List | Glossary On
Versions: 1 2 3 4 5 6 7 8 9 10 11 12 13 14 15 16 17
000
FTUS41 KCLE 291741
TAFFDY
TAF
KFDY 291741Z 2918/3018 05010KT P6SM SCT015 BKN060
      TEMPO 2918/2920 BKN015
     FM292000 05012KT P6SM SCT008 OVC015
      TEMPO 2920/2924 2SM TSRA OVC008CB
     FM300000 07012G20KT P6SM BKN008 OVC015
     FM301500 09010KT P6SM BKN015 BKN025=

USA.gov is the U.S. government's official web portal to all federal, state and local government web resources and services.